createdAt,value
2019-02-08T00:02:06.615Z,33.87
2019-02-08T00:04:37.226Z,35.33
2019-02-08T00:07:07.646Z,36.93
2019-02-08T00:09:38.151Z,35.83
2019-02-08T00:12:08.582Z,36.50
2019-02-08T00:14:39.140Z,30.80
2019-02-08T00:17:09.679Z,34.13
2019-02-08T00:19:40.130Z,35.43
2019-02-08T00:22:10.575Z,37.37
2019-02-08T00:24:40.958Z,37.97
2019-02-08T00:27:11.466Z,36.30
2019-02-08T00:29:41.977Z,37.90
2019-02-08T00:32:12.435Z,40.57
2019-02-08T00:34:43.009Z,38.07
2019-02-08T00:37:13.479Z,35.00
2019-02-08T00:39:44.044Z,33.03
2019-02-08T00:42:14.555Z,37.53
2019-02-08T00:44:44.894Z,38.17
2019-02-08T00:47:15.351Z,37.77
2019-02-08T00:49:45.968Z,36.30
2019-02-08T00:52:16.563Z,37.60
2019-02-08T00:54:46.269Z,36.13
2019-02-08T00:57:16.707Z,42.20
2019-02-08T00:59:47.235Z,43.57
2019-02-08T01:02:17.711Z,46.37
2019-02-08T01:04:48.252Z,48.33
2019-02-08T01:07:18.619Z,47.77
2019-02-08T01:09:49.128Z,46.60
2019-02-08T01:12:19.057Z,69.33
2019-02-08T01:14:49.379Z,90.40
2019-02-08T01:17:19.763Z,73.17
2019-02-08T01:19:50.252Z,75.00
2019-02-08T01:22:20.727Z,69.53
2019-02-08T01:24:51.252Z,68.50
2019-02-08T01:27:21.583Z,67.00
2019-02-08T01:29:52.023Z,67.43
2019-02-08T01:32:22.534Z,76.47
2019-02-08T01:34:53.132Z,67.80
2019-02-08T01:37:23.610Z,63.50
2019-02-08T01:39:54.147Z,53.77
2019-02-08T01:42:24.574Z,48.70
2019-02-08T01:44:54.887Z,47.20
2019-02-08T01:47:25.433Z,38.33
2019-02-08T01:49:55.951Z,38.40
2019-02-08T01:52:26.319Z,39.63
2019-02-08T01:54:56.726Z,35.87
2019-02-08T01:57:27.147Z,38.37
2019-02-08T01:59:56.876Z,37.40
2019-02-08T02:02:27.167Z,35.23
2019-02-08T02:04:57.979Z,34.83
2019-02-08T02:07:28.556Z,33.70
2019-02-08T02:09:58.911Z,32.97
2019-02-08T02:12:29.523Z,31.53
2019-02-08T02:14:59.854Z,36.27
2019-02-08T02:17:30.389Z,38.93
2019-02-08T02:20:00.972Z,36.73
2019-02-08T02:22:31.780Z,38.27
2019-02-08T02:25:02.141Z,37.20
2019-02-08T02:27:32.584Z,39.63
2019-02-08T02:30:02.993Z,40.83
2019-02-08T02:32:33.469Z,38.27
2019-02-08T02:35:04.150Z,35.03
2019-02-08T02:37:34.604Z,30.20
2019-02-08T02:40:05.969Z,31.67
2019-02-08T02:42:36.552Z,31.83
2019-02-08T02:45:11.763Z,30.17
2019-02-08T02:47:42.286Z,33.00
2019-02-08T02:50:12.730Z,30.77
2019-02-08T02:52:43.170Z,29.53
2019-02-08T02:55:14.571Z,30.43
2019-02-08T02:57:44.971Z,28.13
2019-02-08T03:00:19.179Z,28.97
2019-02-08T03:02:49.765Z,26.73
2019-02-08T03:05:20.180Z,25.83
2019-02-08T03:07:50.800Z,25.83
2019-02-08T03:10:21.388Z,24.23
2019-02-08T03:12:51.827Z,26.30
2019-02-08T03:15:22.534Z,26.20
2019-02-08T03:17:53.163Z,25.07
2019-02-08T03:20:23.707Z,24.57
2019-02-08T03:22:54.177Z,24.93
2019-02-08T03:25:25.459Z,28.20
2019-02-08T03:27:55.951Z,25.17
2019-02-08T03:30:30.975Z,24.20
2019-02-08T03:33:01.484Z,24.70
2019-02-08T03:35:32.001Z,24.20
2019-02-08T03:38:02.415Z,23.93
2019-02-08T03:40:32.994Z,25.33
2019-02-08T03:43:03.280Z,24.40
2019-02-08T03:45:35.859Z,26.97
2019-02-08T03:48:06.575Z,26.77
2019-02-08T03:50:37.149Z,29.83
2019-02-08T03:53:08.117Z,28.60
2019-02-08T03:55:38.693Z,31.83
2019-02-08T03:58:10.077Z,27.80
2019-02-08T04:00:45.522Z,29.20
2019-02-08T04:03:16.103Z,30.40
2019-02-08T04:05:46.639Z,36.73
2019-02-08T04:08:17.375Z,33.27
2019-02-08T04:10:47.789Z,35.20
2019-02-08T04:13:18.154Z,49.13
2019-02-08T04:15:48.628Z,67.47
2019-02-08T04:18:19.139Z,77.77
2019-02-08T04:20:49.744Z,106.13
2019-02-08T04:23:20.225Z,91.00
2019-02-08T04:25:50.066Z,97.50
2019-02-08T04:28:20.268Z,79.70
2019-02-08T04:30:50.735Z,76.00
2019-02-08T04:33:21.023Z,69.13
2019-02-08T04:35:51.456Z,74.43
2019-02-08T04:38:21.753Z,65.53
2019-02-08T04:40:52.142Z,54.97
2019-02-08T04:43:22.560Z,45.70
2019-02-08T04:45:52.927Z,45.97
2019-02-08T04:48:23.362Z,48.80
2019-02-08T04:50:53.494Z,46.00
2019-02-08T04:53:23.952Z,47.73
2019-02-08T04:55:54.228Z,47.53
2019-02-08T04:58:24.760Z,40.20
2019-02-08T05:00:55.304Z,45.50
2019-02-08T05:03:25.751Z,41.27
2019-02-08T05:05:56.045Z,49.03
2019-02-08T05:08:26.376Z,51.30
2019-02-08T05:10:56.775Z,58.87
2019-02-08T05:13:27.250Z,62.07
2019-02-08T05:15:57.564Z,68.70
2019-02-08T05:18:28.255Z,58.63
2019-02-08T05:20:58.715Z,67.00
2019-02-08T05:23:29.151Z,69.60
2019-02-08T05:25:59.464Z,74.93
2019-02-08T05:28:29.936Z,85.97
2019-02-08T05:31:00.433Z,85.17
2019-02-08T05:33:31.028Z,99.90
2019-02-08T05:36:01.352Z,95.53
2019-02-08T05:38:31.643Z,87.20
2019-02-08T05:41:02.160Z,69.53
2019-02-08T05:43:32.543Z,61.97
2019-02-08T05:46:03.083Z,62.63
2019-02-08T05:48:33.452Z,68.47
2019-02-08T05:51:03.923Z,74.23
2019-02-08T05:53:34.295Z,65.07
2019-02-08T05:56:04.660Z,91.20
2019-02-08T05:58:35.172Z,128.43
2019-02-08T06:01:05.749Z,137.37
2019-02-08T06:03:36.188Z,129.83
2019-02-08T06:06:06.834Z,110.53
2019-02-08T06:08:37.282Z,79.23
2019-02-08T06:11:07.751Z,64.50
2019-02-08T06:13:38.182Z,66.33
2019-02-08T06:16:08.559Z,63.93
2019-02-08T06:18:39.031Z,70.30
2019-02-08T06:21:09.435Z,125.13
2019-02-08T06:23:40.041Z,59.57
2019-02-08T06:26:10.452Z,61.97
2019-02-08T06:28:40.979Z,56.87
2019-02-08T06:31:11.571Z,60.97
2019-02-08T06:33:42.116Z,51.97
2019-02-08T06:36:12.528Z,62.60
2019-02-08T06:38:42.978Z,74.47
2019-02-08T06:41:13.620Z,103.30
2019-02-08T06:43:44.188Z,65.10
2019-02-08T06:46:14.619Z,45.60
2019-02-08T06:48:44.963Z,40.03
2019-02-08T06:51:15.391Z,37.47
2019-02-08T06:53:45.114Z,37.73
2019-02-08T06:57:20.077Z,31.63
2019-02-08T07:00:09.448Z,39.23
2019-02-08T07:02:46.019Z,44.20
2019-02-08T07:05:36.514Z,37.97
2019-02-08T07:08:12.061Z,32.83
2019-02-08T07:10:47.256Z,34.77
2019-02-08T07:13:22.852Z,34.67
2019-02-08T07:16:10.123Z,33.43
2019-02-08T07:18:50.734Z,37.77
2019-02-08T07:21:31.297Z,42.23
2019-02-08T07:24:10.837Z,45.00
2019-02-08T07:27:44.139Z,51.30
2019-02-08T07:30:25.915Z,44.60
2019-02-08T07:33:12.434Z,39.33
2019-02-08T07:37:50.758Z,37.97
2019-02-08T07:40:33.886Z,31.33
2019-02-08T07:43:39.737Z,34.07
2019-02-08T07:46:14.382Z,27.77
2019-02-08T07:48:49.884Z,28.20
2019-02-08T07:53:27.418Z,30.13
2019-02-08T07:56:08.391Z,28.73
2019-02-08T07:58:43.847Z,29.67
2019-02-08T08:02:20.411Z,28.37
2019-02-08T08:05:14.824Z,28.53
2019-02-08T08:08:48.713Z,31.00
2019-02-08T08:11:29.073Z,28.40
2019-02-08T08:15:04.625Z,31.87
2019-02-08T08:17:44.167Z,30.07
2019-02-08T08:20:53.813Z,28.93
2019-02-08T08:23:34.171Z,28.50
2019-02-08T08:27:15.152Z,29.90
2019-02-08T08:30:49.680Z,28.40
2019-02-08T08:33:28.904Z,26.73
2019-02-08T08:36:15.055Z,27.63
2019-02-08T08:40:58.861Z,25.23
2019-02-08T08:43:51.917Z,21.63
2019-02-08T08:46:38.011Z,21.27
2019-02-08T08:49:17.535Z,20.50
2019-02-08T08:52:08.560Z,21.73
2019-02-08T08:54:55.323Z,20.07
2019-02-08T08:58:10.443Z,20.17
2019-02-08T09:00:57.974Z,17.83
2019-02-08T09:03:52.502Z,18.57
2019-02-08T09:06:48.590Z,20.70
2019-02-08T09:09:47.484Z,17.73
2019-02-08T09:12:30.811Z,22.10
2019-02-08T09:16:45.790Z,20.00
2019-02-08T09:20:44.383Z,17.63
2019-02-08T09:33:28.371Z,16.40
2019-02-08T09:36:11.181Z,15.30
2019-02-08T09:38:52.387Z,13.20
2019-02-08T09:41:32.542Z,16.23
2019-02-08T09:44:25.496Z,15.23
2019-02-08T09:48:21.176Z,13.63
2019-02-08T09:51:03.118Z,14.40
2019-02-08T09:53:49.825Z,12.93
2019-02-08T09:57:09.916Z,15.83
2019-02-08T09:59:50.930Z,14.53
2019-02-08T10:03:33.714Z,15.03
2019-02-08T10:08:29.446Z,15.63
2019-02-08T10:13:14.894Z,12.53
2019-02-08T10:16:35.029Z,12.50
2019-02-08T10:19:17.696Z,10.73
2019-02-08T10:22:04.615Z,12.77
2019-02-08T10:24:45.733Z,13.57
2019-02-08T10:28:45.761Z,10.87
2019-02-08T10:31:43.732Z,13.83
2019-02-08T10:34:25.627Z,13.43
2019-02-08T10:38:08.655Z,13.40
2019-02-08T10:40:49.629Z,12.63
2019-02-08T10:45:37.579Z,12.47
2019-02-08T10:48:37.499Z,13.37
2019-02-08T10:51:48.679Z,13.77
2019-02-08T10:55:11.882Z,11.70
2019-02-08T10:57:57.467Z,11.73
2019-02-08T11:01:41.929Z,13.73
2019-02-08T11:04:19.514Z,14.07
2019-02-08T11:07:00.554Z,18.10
2019-02-08T11:09:41.120Z,13.63
2019-02-08T11:14:39.658Z,18.23
2019-02-08T11:19:54.705Z,23.13
2019-02-08T11:22:25.274Z,11.63
2019-02-08T11:24:55.715Z,14.73
2019-02-08T11:27:25.919Z,11.27
2019-02-08T11:29:56.251Z,14.73
2019-02-08T11:32:42.296Z,10.43
2019-02-08T11:34:57.117Z,10.67
2019-02-08T11:37:27.892Z,10.97
2019-02-08T11:39:58.279Z,12.97
2019-02-08T11:42:28.647Z,12.00
2019-02-08T11:44:59.045Z,11.37
2019-02-08T11:47:29.385Z,15.23
2019-02-08T11:49:59.928Z,15.17
2019-02-08T11:52:30.146Z,13.70
2019-02-08T11:55:00.476Z,29.17
2019-02-08T11:57:30.704Z,87.17
2019-02-08T12:00:01.036Z,21.73
2019-02-08T12:02:31.652Z,13.10
2019-02-08T12:05:01.942Z,25.77
2019-02-08T12:07:32.604Z,13.43
2019-02-08T12:10:02.970Z,11.83
2019-02-08T12:12:33.286Z,10.70
2019-02-08T12:15:04.020Z,9.80
2019-02-08T12:17:34.295Z,11.07
2019-02-08T12:20:05.184Z,11.00
2019-02-08T12:22:35.467Z,11.23
2019-02-08T12:25:06.851Z,11.30
2019-02-08T12:27:37.034Z,13.30
2019-02-08T12:30:10.737Z,17.63
2019-02-08T12:32:41.003Z,11.50
2019-02-08T12:35:11.448Z,19.43
2019-02-08T12:37:41.171Z,15.90
2019-02-08T12:40:11.520Z,14.70
2019-02-08T12:42:41.847Z,12.10
2019-02-08T12:45:12.429Z,12.23
2019-02-08T12:47:42.867Z,13.90
2019-02-08T12:50:13.464Z,12.87
2019-02-08T12:52:43.857Z,17.93
2019-02-08T12:55:14.591Z,29.90
2019-02-08T12:57:44.948Z,53.13
2019-02-08T13:00:17.899Z,41.40
2019-02-08T13:02:48.239Z,19.87
2019-02-08T13:05:18.810Z,74.13
2019-02-08T13:07:49.423Z,65.37
2019-02-08T13:10:21.880Z,45.73
2019-02-08T13:12:52.351Z,23.40
2019-02-08T13:15:22.940Z,25.43
2019-02-08T13:17:53.251Z,21.63
2019-02-08T13:20:23.771Z,12.57
2019-02-08T13:22:54.175Z,53.53
2019-02-08T13:25:24.749Z,69.83
2019-02-08T13:27:55.016Z,67.13
2019-02-08T13:30:26.351Z,18.17
2019-02-08T13:32:56.647Z,18.77
2019-02-08T13:35:27.099Z,92.53
2019-02-08T13:37:57.615Z,37.33
2019-02-08T13:40:28.307Z,49.20
2019-02-08T13:42:58.571Z,90.33
2019-02-08T13:45:29.346Z,66.37
2019-02-08T13:47:59.627Z,60.23
2019-02-08T13:50:30.267Z,88.57
2019-02-08T13:53:00.579Z,86.43
2019-02-08T13:55:31.008Z,74.63
2019-02-08T13:58:01.688Z,55.90
2019-02-08T14:00:34.111Z,30.03
2019-02-08T14:03:04.635Z,21.93
2019-02-08T14:05:35.095Z,13.83
2019-02-08T14:08:04.660Z,16.97
2019-02-08T14:10:34.992Z,12.27
2019-02-08T14:13:05.470Z,16.90
2019-02-08T14:15:35.334Z,26.67
2019-02-08T14:18:05.943Z,49.93
2019-02-08T14:20:36.312Z,44.87
2019-02-08T14:23:06.656Z,54.13
2019-02-08T14:25:36.976Z,18.00
2019-02-08T14:28:07.353Z,34.03
2019-02-08T14:30:39.495Z,68.67
2019-02-08T14:33:09.912Z,90.17
2019-02-08T14:35:40.351Z,55.20
2019-02-08T14:38:13.967Z,56.03
2019-02-08T14:40:44.667Z,90.63
2019-02-08T14:43:15.110Z,65.77
2019-02-08T14:45:45.575Z,33.10
2019-02-08T14:48:16.051Z,18.33
2019-02-08T14:50:46.364Z,19.60
2019-02-08T14:53:16.714Z,30.67
2019-02-08T14:55:47.040Z,16.00
2019-02-08T14:58:17.443Z,11.63
2019-02-08T15:00:47.583Z,17.63
2019-02-08T15:03:17.928Z,12.93
2019-02-08T15:05:48.274Z,13.37
2019-02-08T15:08:18.635Z,14.23
2019-02-08T15:10:50.181Z,23.20
2019-02-08T15:13:20.612Z,18.30
2019-02-08T15:15:50.755Z,23.63
2019-02-08T15:18:21.344Z,22.47
2019-02-08T15:20:51.615Z,55.70
2019-02-08T15:23:21.831Z,40.97
2019-02-08T15:25:52.254Z,21.87
2019-02-08T15:28:22.656Z,17.53
2019-02-08T15:30:52.943Z,12.97
2019-02-08T15:33:23.283Z,16.57
2019-02-08T15:35:53.658Z,17.30
2019-02-08T15:38:23.826Z,18.33
2019-02-08T15:40:55.941Z,16.27
2019-02-08T15:43:27.047Z,19.90
2019-02-08T15:45:59.970Z,16.87
2019-02-08T15:48:30.455Z,18.30
2019-02-08T15:51:00.955Z,16.03
2019-02-08T15:53:31.343Z,17.93
2019-02-08T15:56:05.710Z,20.27
2019-02-08T15:58:36.383Z,19.17
2019-02-08T16:01:09.440Z,23.87
2019-02-08T16:03:39.987Z,16.67
2019-02-08T16:06:10.400Z,20.47
2019-02-08T16:08:40.895Z,20.60
2019-02-08T16:11:11.309Z,27.50
2019-02-08T16:13:41.819Z,41.07
2019-02-08T16:16:12.660Z,42.07
2019-02-08T16:18:43.055Z,26.70
2019-02-08T16:21:13.556Z,20.93
2019-02-08T16:23:44.023Z,22.57
2019-02-08T16:26:14.295Z,25.30
2019-02-08T16:28:44.688Z,35.77
2019-02-08T16:31:15.011Z,46.50
2019-02-08T16:33:45.413Z,27.90
2019-02-08T16:36:15.632Z,25.47
2019-02-08T16:38:46.028Z,24.40
2019-02-08T16:41:16.291Z,21.07
2019-02-08T16:43:46.848Z,20.90
2019-02-08T16:46:17.580Z,30.33
2019-02-08T16:48:47.924Z,36.63
2019-02-08T16:51:18.425Z,30.57
2019-02-08T16:53:53.568Z,23.90
2019-02-08T16:56:19.111Z,26.97
2019-02-08T16:58:49.515Z,42.53
2019-02-08T17:01:19.857Z,51.90
2019-02-08T17:03:50.260Z,36.10
2019-02-08T17:06:20.528Z,32.73
2019-02-08T17:08:50.924Z,30.80
2019-02-08T17:11:21.316Z,32.53
2019-02-08T17:13:51.595Z,33.33
2019-02-08T17:16:21.974Z,30.17
2019-02-08T17:18:52.408Z,31.17
2019-02-08T17:21:23.027Z,27.33
2019-02-08T17:23:53.418Z,30.70
2019-02-08T17:26:23.147Z,34.70
2019-02-08T17:28:53.411Z,34.97
2019-02-08T17:31:23.817Z,29.40
2019-02-08T17:33:54.130Z,36.40
2019-02-08T17:36:24.460Z,32.53
2019-02-08T17:41:54.427Z,34.20
2019-02-08T17:44:24.806Z,46.47
2019-02-08T17:46:55.349Z,57.47
2019-02-08T17:49:25.495Z,62.17
2019-02-08T17:51:55.860Z,48.57
2019-02-08T17:54:26.158Z,40.00
2019-02-08T17:56:56.404Z,40.70
2019-02-08T17:59:26.867Z,53.83
2019-02-08T18:01:57.136Z,67.30
2019-02-08T18:04:27.402Z,80.27
2019-02-08T18:06:57.794Z,71.70
2019-02-08T18:09:28.006Z,60.50
2019-02-08T18:11:58.359Z,53.97
2019-02-08T18:14:28.810Z,53.37
2019-02-08T18:16:59.064Z,64.83
2019-02-08T18:19:29.912Z,66.63
2019-02-08T18:22:00.203Z,63.00
2019-02-08T18:24:30.466Z,64.20
2019-02-08T18:27:00.981Z,71.57
2019-02-08T18:29:31.469Z,75.47
2019-02-08T18:32:01.772Z,56.10
2019-02-08T18:34:32.103Z,59.43
2019-02-08T18:37:02.859Z,63.07
2019-02-08T18:39:33.241Z,63.87
2019-02-08T18:42:03.543Z,93.10
2019-02-08T18:44:33.872Z,92.70
2019-02-08T18:47:04.499Z,113.80
2019-02-08T18:49:34.843Z,91.70
2019-02-08T18:52:05.279Z,101.13
2019-02-08T18:54:35.633Z,91.40
2019-02-08T18:57:06.067Z,87.67
2019-02-08T18:59:36.483Z,97.63
2019-02-08T19:02:06.752Z,99.77
2019-02-08T19:04:38.155Z,127.53
2019-02-08T19:07:08.512Z,156.47
2019-02-08T19:09:38.816Z,147.33
2019-02-08T19:12:09.171Z,124.67
2019-02-08T19:14:39.555Z,111.37
2019-02-08T19:17:09.721Z,145.80
2019-02-08T19:19:40.127Z,130.03
2019-02-08T19:22:10.489Z,154.07
2019-02-08T19:24:40.243Z,151.97
2019-02-08T19:27:10.560Z,139.93
2019-02-08T19:29:40.908Z,117.13
2019-02-08T19:32:11.375Z,109.07
2019-02-08T19:34:41.883Z,114.93
2019-02-08T19:37:12.208Z,115.73
2019-02-08T19:39:42.782Z,121.33
2019-02-08T19:42:13.303Z,108.83
2019-02-08T19:44:44.201Z,112.17
2019-02-08T19:47:14.922Z,96.60
2019-02-08T19:49:45.568Z,102.03
2019-02-08T19:52:16.053Z,112.73
2019-02-08T19:54:46.508Z,99.57
2019-02-08T19:57:16.848Z,82.90
2019-02-08T19:59:47.235Z,126.57
2019-02-08T20:02:17.626Z,145.77
2019-02-08T20:04:48.056Z,133.73
2019-02-08T20:07:18.616Z,94.80
2019-02-08T20:09:49.155Z,161.90
2019-02-08T20:12:19.568Z,184.03
2019-02-08T20:14:50.100Z,123.47
2019-02-08T20:17:20.273Z,111.00
2019-02-08T20:19:50.538Z,117.87
2019-02-08T20:22:20.913Z,134.37
2019-02-08T20:24:51.212Z,196.17
2019-02-08T20:27:21.513Z,233.90
2019-02-08T20:29:52.015Z,245.97
2019-02-08T20:32:22.680Z,311.30
2019-02-08T20:34:53.458Z,254.63
2019-02-08T20:37:24.155Z,198.90
2019-02-08T20:39:54.948Z,185.60
2019-02-08T20:42:24.786Z,182.30
2019-02-08T20:44:55.500Z,197.33
2019-02-08T20:47:26.015Z,184.83
2019-02-08T20:49:55.714Z,134.67
2019-02-08T20:52:26.084Z,140.60
2019-02-08T20:54:56.787Z,136.17
2019-02-08T20:57:27.399Z,149.50
2019-02-08T20:59:58.080Z,152.17
2019-02-08T21:02:28.675Z,176.63
2019-02-08T21:04:59.175Z,155.43
2019-02-08T21:07:29.587Z,120.33
2019-02-08T21:10:00.439Z,49.33
2019-02-08T21:12:30.675Z,50.07
2019-02-08T21:15:00.873Z,43.27
2019-02-08T21:17:31.031Z,54.37
2019-02-08T21:20:01.094Z,52.13
2019-02-08T21:22:31.573Z,59.30
2019-02-08T21:25:01.753Z,51.40
2019-02-08T21:27:31.855Z,54.93
2019-02-08T21:30:02.089Z,56.90
2019-02-08T21:32:32.220Z,50.10
2019-02-08T21:35:02.343Z,50.73
2019-02-08T21:37:32.425Z,49.20
2019-02-08T21:40:02.671Z,47.33
2019-02-08T21:42:32.773Z,56.83
2019-02-08T21:45:02.888Z,66.33
2019-02-08T21:47:32.963Z,84.87
2019-02-08T21:50:07.485Z,70.83
2019-02-08T21:52:37.620Z,52.73
2019-02-08T21:55:09.097Z,52.87
2019-02-08T21:57:39.214Z,53.80
2019-02-08T22:00:16.632Z,53.80
2019-02-08T22:02:47.032Z,61.10
2019-02-08T22:05:17.727Z,54.60
2019-02-08T22:07:48.240Z,54.30
2019-02-08T22:10:18.484Z,50.43
2019-02-08T22:12:48.638Z,53.73
2019-02-08T22:15:21.612Z,53.40
2019-02-08T22:17:51.875Z,58.10
2019-02-08T22:20:22.356Z,52.20
2019-02-08T22:22:52.799Z,52.67
2019-02-08T22:25:24.351Z,63.23
2019-02-08T22:27:54.846Z,63.90
2019-02-08T22:30:24.863Z,70.97
2019-02-08T22:32:56.715Z,58.70
2019-02-08T22:35:28.116Z,53.90
2019-02-08T22:37:58.342Z,49.20
2019-02-08T22:40:28.996Z,58.17
2019-02-08T22:42:59.464Z,60.10
2019-02-08T22:45:34.475Z,62.43
2019-02-08T22:48:04.182Z,59.10
2019-02-08T22:50:34.588Z,56.77
2019-02-08T22:53:05.904Z,65.30
2019-02-08T22:55:36.314Z,59.63
2019-02-08T22:58:07.647Z,73.50
2019-02-08T23:01:48.567Z,88.97
2019-02-08T23:04:19.052Z,90.27
2019-02-08T23:06:49.621Z,108.17
2019-02-08T23:09:24.137Z,112.40
2019-02-08T23:11:54.870Z,94.37
2019-02-08T23:14:25.468Z,82.77
2019-02-08T23:16:56.255Z,102.27
2019-02-08T23:19:26.675Z,87.07
2019-02-08T23:21:57.188Z,80.07
2019-02-08T23:24:27.436Z,71.43
2019-02-08T23:26:58.099Z,71.57
2019-02-08T23:29:30.201Z,73.00
2019-02-08T23:31:59.180Z,80.93
2019-02-08T23:34:29.437Z,84.97
2019-02-08T23:36:59.927Z,83.00
2019-02-08T23:39:30.240Z,87.37
2019-02-08T23:44:51.674Z,85.67
2019-02-08T23:47:22.450Z,92.80
2019-02-08T23:49:52.832Z,113.40
2019-02-08T23:52:23.193Z,91.50
2019-02-08T23:54:53.522Z,104.63
2019-02-08T23:57:24.117Z,77.83
2019-02-08T23:59:54.511Z,67.77
